Time;durP1;ratioP1;P1;durP2;ratioP2;P2;SDS_P1;SDS_P2;PMS_P1;PMS_P2;Temp;Humidity;BMP_temperature;BMP_pressure;BME280_temperature;BME280_humidity;BME280_pressure;Samples;Min_cycle;Max_cycle;Signal;HPM_P1;HPM_P2
2020/12/25 00:02:03;;;;;;;3.78;0.20;;;;;;;8.87;50.92;101822.19;5043743;28;20155;-70
2020/12/25 00:04:29;;;;;;;5.25;0.25;;;;;;;8.94;50.58;101823.97;5021726;28;20040;-70
2020/12/25 00:06:54;;;;;;;5.10;0.75;;;;;;;9.07;50.15;101827.56;5041867;28;20032;-71
2020/12/25 00:09:20;;;;;;;7.97;0.50;;;;;;;9.32;49.49;101833.81;5042367;28;20088;-70
2020/12/25 00:11:45;;;;;;;6.50;0.40;;;;;;;9.05;49.96;101828.38;5054313;28;20064;-71
2020/12/25 00:14:11;;;;;;;2.25;0.15;;;;;;;8.86;50.46;101827.31;5050095;28;20035;-71
2020/12/25 00:16:36;;;;;;;0.60;0.10;;;;;;;9.20;49.53;101828.56;5041889;28;20076;-71
2020/12/25 00:19:02;;;;;;;7.53;0.30;;;;;;;9.05;49.53;101833.56;5046529;28;20032;-70
2020/12/25 00:21:28;;;;;;;2.30;0.40;;;;;;;9.04;49.81;101836.97;5041991;28;20125;-70
2020/12/25 00:23:54;;;;;;;6.53;0.20;;;;;;;9.15;49.51;101843.09;5048101;28;20041;-71
2020/12/25 00:26:31;;;;;;;2.28;0.10;;;;;;;9.07;49.68;101842.16;5050653;28;20056;-71
2020/12/25 00:28:58;;;;;;;5.57;0.40;;;;;;;8.94;49.55;101842.03;5062785;28;20462;-70
2020/12/25 00:31:29;;;;;;;7.47;0.30;;;;;;;8.95;49.74;101845.44;5045389;28;20033;-71
2020/12/25 00:34:09;;;;;;;6.57;0.57;;;;;;;9.04;49.31;101848.16;5045116;28;20044;-70
2020/12/25 00:36:37;;;;;;;7.53;0.43;;;;;;;9.08;49.10;101861.94;5048907;28;20036;-71
2020/12/25 00:39:06;;;;;;;1.85;0.25;;;;;;;9.01;49.23;101867.88;5045444;28;20033;-70
2020/12/25 00:41:31;;;;;;;2.20;0.10;;;;;;;8.75;50.32;101878.72;5042676;28;20037;-70
2020/12/25 00:43:57;;;;;;;1.45;0.32;;;;;;;8.83;49.66;101866.81;5041736;28;20087;-70
2020/12/25 00:46:23;;;;;;;9.50;0.30;;;;;;;8.88;49.52;101872.03;5047204;28;20033;-71
2020/12/25 00:48:49;;;;;;;6.57;0.45;;;;;;;8.76;49.72;101877.91;5047058;28;20052;-70
2020/12/25 00:51:16;;;;;;;4.80;0.40;;;;;;;8.80;49.50;101874.50;5046870;28;20041;-70
2020/12/25 00:53:42;;;;;;;4.40;0.10;;;;;;;8.72;49.90;101881.28;5046270;28;20040;-70
2020/12/25 00:56:10;;;;;;;2.72;0.20;;;;;;;8.77;49.62;101884.78;5049431;28;20643;-70
2020/12/25 00:58:36;;;;;;;0.90;0.08;;;;;;;8.67;49.76;101888.09;5043798;28;20041;-71
2020/12/25 01:01:04;;;;;;;5.82;0.20;;;;;;;8.60;50.10;101878.56;5053031;28;20032;-70
2020/12/25 01:03:30;;;;;;;4.75;0.40;;;;;;;8.54;50.30;101886.19;5045647;28;20497;-70
2020/12/25 01:05:56;;;;;;;3.63;0.20;;;;;;;8.54;50.19;101881.91;5054891;28;20493;-70
2020/12/25 01:08:21;;;;;;;5.28;0.15;;;;;;;8.49;50.30;101889.56;5063387;28;20056;-70
2020/12/25 01:10:47;;;;;;;2.40;0.75;;;;;;;8.61;49.83;101895.72;5045843;28;20034;-71
2020/12/25 01:13:13;;;;;;;2.50;0.40;;;;;;;8.57;49.88;101896.53;5045248;28;20079;-70
2020/12/25 01:15:38;;;;;;;10.85;0.40;;;;;;;8.60;49.79;101901.75;5044895;28;20058;-71
2020/12/25 01:18:04;;;;;;;2.22;0.40;;;;;;;8.56;49.79;101905.13;5032290;28;20037;-70
2020/12/25 01:20:29;;;;;;;6.10;0.50;;;;;;;8.46;49.93;101902.41;5047812;28;20045;-71
2020/12/25 01:22:55;;;;;;;0.82;0.20;;;;;;;8.33;50.00;101900.47;5048929;28;20033;-71
2020/12/25 01:25:21;;;;;;;4.85;0.13;;;;;;;8.24;50.26;101897.75;5047078;28;20032;-71
2020/12/25 01:27:46;;;;;;;7.97;0.25;;;;;;;8.15;50.39;101900.16;5063239;28;20129;-71
2020/12/25 01:30:12;;;;;;;4.10;0.20;;;;;;;8.14;50.23;101901.03;5064105;28;20041;-72
2020/12/25 01:32:37;;;;;;;1.42;0.17;;;;;;;8.09;50.55;101896.66;5047932;28;20045;-71
2020/12/25 01:35:04;;;;;;;1.70;0.10;;;;;;;7.94;50.55;101896.41;5048810;28;20474;-71
2020/12/25 01:37:30;;;;;;;2.00;0.10;;;;;;;7.83;50.88;101891.06;5049571;28;20047;-71
2020/12/25 01:39:56;;;;;;;2.08;0.10;;;;;;;7.79;50.89;101896.16;5048954;28;20110;-70
2020/12/25 01:42:22;;;;;;;6.32;0.30;;;;;;;7.77;50.63;101902.97;5056508;28;20672;-71
2020/12/25 01:44:47;;;;;;;1.23;0.10;;;;;;;7.68;50.92;101907.16;5049068;28;20049;-70
2020/12/25 01:47:17;;;;;;;0.65;0.10;;;;;;;7.64;50.61;101913.06;5047082;28;20032;-71
2020/12/25 01:49:44;;;;;;;4.40;0.20;;;;;;;7.51;50.81;101908.53;5046072;28;20126;-71
2020/12/25 01:52:10;;;;;;;2.20;0.17;;;;;;;7.42;51.04;101918.66;5048711;28;20032;-70
2020/12/25 01:54:36;;;;;;;1.20;0.10;;;;;;;7.38;51.27;101916.88;5051430;28;20122;-70
2020/12/25 01:57:02;;;;;;;1.08;0.20;;;;;;;7.30;51.33;101918.41;5033144;28;20127;-71
2020/12/25 01:59:29;;;;;;;2.80;0.55;;;;;;;7.27;51.41;101927.78;5063503;28;20091;-70
2020/12/25 02:01:54;;;;;;;9.20;0.35;;;;;;;7.26;51.49;101926.06;5049543;28;20029;-71
2020/12/25 02:04:20;;;;;;;4.72;0.50;;;;;;;7.26;51.41;101931.22;5049320;28;20041;-70
2020/12/25 02:06:46;;;;;;;3.47;0.32;;;;;;;7.26;51.27;101936.38;5065371;28;20089;-69
2020/12/25 02:09:11;;;;;;;8.02;0.47;;;;;;;7.17;52.23;101933.63;5049291;28;20040;-71
2020/12/25 02:11:37;;;;;;;6.55;0.30;;;;;;;7.24;52.19;101929.47;5047851;28;20036;-70
2020/12/25 02:14:03;;;;;;;1.67;0.20;;;;;;;7.25;51.89;101937.19;5033725;28;20025;-71
2020/12/25 02:16:28;;;;;;;3.10;1.08;;;;;;;7.20;52.13;101946.53;5062414;28;20041;-70
2020/12/25 02:18:54;;;;;;;5.32;0.65;;;;;;;7.17;52.31;101950.75;5049538;28;20082;-70
2020/12/25 02:21:19;;;;;;;9.23;0.20;;;;;;;7.21;51.95;101949.94;5045248;28;20075;-71
2020/12/25 02:23:45;;;;;;;4.57;0.20;;;;;;;7.20;52.38;101951.66;5064422;28;20037;-70
2020/12/25 02:26:11;;;;;;;2.35;0.45;;;;;;;7.31;52.60;101954.44;5069074;28;20695;-70
2020/12/25 02:28:36;;;;;;;3.60;0.85;;;;;;;7.43;52.43;101957.25;5047820;28;20025;-71
2020/12/25 02:31:03;;;;;;;6.18;0.38;;;;;;;7.48;52.47;101963.38;5065326;28;20128;-70
2020/12/25 02:33:28;;;;;;;4.45;0.20;;;;;;;7.53;52.63;101967.75;5065834;28;20044;-70
2020/12/25 02:35:54;;;;;;;1.30;0.20;;;;;;;7.66;52.62;101969.72;5044419;28;20025;-70
2020/12/25 02:38:20;;;;;;;2.83;0.40;;;;;;;7.88;52.03;101961.53;5049019;28;20035;-70
2020/12/25 02:40:45;;;;;;;8.00;0.50;;;;;;;7.97;52.07;101967.66;5049899;28;20077;-71
2020/12/25 02:43:10;;;;;;;2.20;0.40;;;;;;;8.13;52.08;101972.25;5065948;28;20534;-71
2020/12/25 02:45:36;;;;;;;0.98;0.20;;;;;;;8.22;52.07;101974.13;5063245;28;20056;-70
2020/12/25 02:48:01;;;;;;;6.97;0.45;;;;;;;8.20;52.11;101966.38;5057857;28;20420;-70
2020/12/25 02:50:27;;;;;;;1.30;0.35;;;;;;;8.24;51.98;101970.72;5047260;28;20111;-70
2020/12/25 02:52:52;;;;;;;3.00;0.20;;;;;;;8.22;51.90;101963.84;5049505;28;20474;-71
2020/12/25 02:55:18;;;;;;;7.55;0.25;;;;;;;8.14;51.72;101965.41;5048001;28;20036;-71
2020/12/25 02:57:43;;;;;;;1.77;0.35;;;;;;;8.09;51.97;101957.59;5051698;28;20029;-71
2020/12/25 03:00:09;;;;;;;5.88;0.30;;;;;;;8.20;51.95;101957.78;5049061;28;20036;-70
2020/12/25 03:02:34;;;;;;;4.32;0.57;;;;;;;8.22;51.85;101951.81;5048246;28;20040;-70
2020/12/25 03:05:00;;;;;;;1.48;0.20;;;;;;;8.35;51.64;101958.03;5039917;28;20025;-71
2020/12/25 03:07:25;;;;;;;2.95;0.50;;;;;;;8.26;51.53;101957.84;5068049;28;20493;-71
2020/12/25 03:09:51;;;;;;;2.00;0.43;;;;;;;8.22;51.59;101958.69;5045953;28;20082;-71
2020/12/25 03:12:16;;;;;;;11.10;0.40;;;;;;;8.21;51.74;101955.22;5051681;28;20508;-71
2020/12/25 03:14:42;;;;;;;3.85;0.47;;;;;;;8.23;51.72;101947.53;5033260;28;20434;-71
2020/12/25 03:17:07;;;;;;;4.13;0.70;;;;;;;8.33;51.73;101954.56;5050626;28;20077;-71
2020/12/25 03:19:33;;;;;;;8.02;0.30;;;;;;;8.42;51.75;101964.19;5046757;28;20136;-70
2020/12/25 03:21:58;;;;;;;4.22;0.30;;;;;;;8.46;51.55;101948.78;5048454;28;20036;-70
2020/12/25 03:24:23;;;;;;;2.08;0.45;;;;;;;8.59;51.76;101967.84;5051947;28;20044;-71
2020/12/25 03:26:49;;;;;;;5.80;0.30;;;;;;;8.66;52.05;101968.81;5041675;28;20120;-70
2020/12/25 03:29:15;;;;;;;5.15;0.30;;;;;;;8.05;53.67;101976.41;5051090;28;20123;-70
2020/12/25 03:31:40;;;;;;;9.30;1.02;;;;;;;8.01;55.11;101992.63;5048298;28;20041;-71
2020/12/25 03:34:06;;;;;;;7.05;0.30;;;;;;;8.66;53.72;101990.31;5044231;28;20032;-71
2020/12/25 03:36:32;;;;;;;5.20;0.10;;;;;;;8.81;53.62;101975.91;5047601;28;20609;-70
2020/12/25 03:38:58;;;;;;;3.03;0.10;;;;;;;8.97;53.64;101943.47;5046569;28;20199;-70
2020/12/25 03:41:23;;;;;;;0.10;0.00;;;;;;;9.01;53.47;101968.44;5049776;28;20111;-70
2020/12/25 03:43:49;;;;;;;2.40;0.10;;;;;;;9.12;52.99;101969.44;5043241;28;20387;-70
2020/12/25 03:46:14;;;;;;;9.95;0.47;;;;;;;8.87;53.54;101976.88;5046654;28;20036;-71
2020/12/25 03:48:40;;;;;;;0.20;0.10;;;;;;;8.84;53.63;101974.25;5061733;28;20033;-70
2020/12/25 03:51:05;;;;;;;0.65;0.00;;;;;;;8.54;54.23;101987.53;5049110;28;20037;-71
2020/12/25 03:53:31;;;;;;;1.20;0.10;;;;;;;8.67;53.68;101991.19;5043555;28;20507;-70
2020/12/25 03:55:56;;;;;;;4.68;0.20;;;;;;;8.86;53.14;101985.47;5047083;28;20032;-71
2020/12/25 03:58:22;;;;;;;4.18;0.15;;;;;;;8.83;52.90;101977.66;5044349;28;20116;-70
2020/12/25 04:00:48;;;;;;;5.63;0.10;;;;;;;8.88;52.84;101978.59;5043943;28;20040;-71
2020/12/25 04:03:13;;;;;;;3.25;0.00;;;;;;;8.89;52.15;101961.44;5045550;28;20036;-71
2020/12/25 04:05:40;;;;;;;4.03;0.10;;;;;;;8.71;52.39;101962.03;5042986;28;20072;-70
2020/12/25 04:08:06;;;;;;;5.05;0.22;;;;;;;8.55;52.55;101960.06;5043094;28;20029;-71
2020/12/25 04:10:31;;;;;;;7.47;0.20;;;;;;;8.40;53.37;101956.41;5041981;28;20037;-71
2020/12/25 04:13:00;;;;;;;4.10;0.17;;;;;;;8.25;53.92;101966.44;5041131;28;20478;-71
2020/12/25 04:15:26;;;;;;;2.85;0.30;;;;;;;8.16;54.06;101964.59;5049345;28;20049;-71
2020/12/25 04:17:52;;;;;;;0.60;0.03;;;;;;;8.05;54.26;101972.13;5047439;28;20091;-70
2020/12/25 04:20:17;;;;;;;2.13;0.00;;;;;;;8.06;53.90;101961.00;5030421;28;20049;-70
2020/12/25 04:22:43;;;;;;;0.35;0.00;;;;;;;8.03;53.79;101966.06;5042677;28;20029;-70
2020/12/25 04:25:08;;;;;;;5.43;0.68;;;;;;;7.94;53.78;101962.47;5046673;28;20649;-71
2020/12/25 04:27:34;;;;;;;2.53;0.00;;;;;;;7.92;53.38;101962.44;5041150;28;20056;-70
2020/12/25 04:29:59;;;;;;;0.10;0.00;;;;;;;7.85;53.14;101965.75;5029282;28;20062;-70
2020/12/25 04:32:25;;;;;;;6.13;0.20;;;;;;;7.57;54.58;101972.97;5044794;28;20120;-70
2020/12/25 04:34:50;;;;;;;2.10;0.10;;;;;;;7.60;54.24;101970.44;5045169;28;20041;-71
2020/12/25 04:37:17;;;;;;;3.60;0.30;;;;;;;7.49;54.80;101977.09;5043684;28;20025;-71
2020/12/25 04:39:42;;;;;;;1.02;0.20;;;;;;;7.52;54.17;101978.84;5041816;28;20033;-71
2020/12/25 04:42:08;;;;;;;1.45;0.00;;;;;;;7.48;54.11;101980.53;5044876;28;20029;-70
2020/12/25 04:44:34;;;;;;;1.48;0.10;;;;;;;7.44;54.36;101976.16;5043352;28;20041;-71
2020/12/25 04:47:10;;;;;;;5.53;0.10;;;;;;;7.44;53.95;101982.16;5060585;28;20033;-70
2020/12/25 04:49:39;;;;;;;0.82;0.00;;;;;;;7.49;53.68;101982.25;5043526;28;20555;-70
2020/12/25 04:52:05;;;;;;;0.80;0.00;;;;;;;7.35;53.98;101983.69;5046339;28;20057;-70
2020/12/25 04:54:31;;;;;;;0.70;0.25;;;;;;;7.38;54.35;101986.31;5024304;28;20033;-70
2020/12/25 04:56:58;;;;;;;1.40;0.08;;;;;;;7.34;54.18;101987.94;5040853;28;20036;-70
2020/12/25 04:59:31;;;;;;;2.45;0.00;;;;;;;7.32;54.24;101996.47;5041501;28;20490;-71
2020/12/25 05:02:00;;;;;;;;;;;;;;;7.35;54.24;101993.97;5044225;28;20096;-69
2020/12/25 05:04:26;;;;;;;4.07;0.80;;;;;;;7.41;54.01;101988.94;5061926;28;19923;-70
2020/12/25 05:06:53;;;;;;;1.90;0.10;;;;;;;7.36;53.79;102000.84;5061795;28;21488;-70
2020/12/25 05:09:25;;;;;;;1.00;0.00;;;;;;;7.28;53.91;101993.84;5048794;28;20132;-70
2020/12/25 05:11:56;;;;;;;0.98;0.22;;;;;;;7.16;54.05;101985.84;5045984;28;20029;-71
2020/12/25 05:14:32;;;;;;;1.27;0.10;;;;;;;7.09;54.34;101989.13;5045769;28;20029;-70
2020/12/25 05:16:59;;;;;;;0.88;0.00;;;;;;;7.20;54.03;101995.38;5046024;28;20033;-71
2020/12/25 05:19:29;;;;;;;2.30;0.20;;;;;;;7.14;53.87;101997.81;5046569;28;20043;-71
2020/12/25 05:21:56;;;;;;;3.35;0.10;;;;;;;7.24;53.76;101986.88;5041906;28;20116;-70
2020/12/25 05:24:22;;;;;;;1.15;0.00;;;;;;;7.12;54.35;101984.03;5046083;28;20033;-71
2020/12/25 05:26:53;;;;;;;3.00;0.10;;;;;;;7.13;54.20;101990.94;5040783;28;20044;-71
2020/12/25 05:29:21;;;;;;;1.75;0.10;;;;;;;7.13;54.30;101988.38;5059701;28;20662;-71
2020/12/25 05:31:47;;;;;;;0.82;0.10;;;;;;;6.99;56.11;101990.66;5043798;28;20037;-70
2020/12/25 05:34:14;;;;;;;1.33;0.13;;;;;;;7.24;55.26;101984.31;5049564;28;20036;-70
2020/12/25 05:36:47;;;;;;;2.78;0.10;;;;;;;7.32;54.53;101991.31;5043768;28;20037;-70
2020/12/25 05:39:27;;;;;;;0.20;0.00;;;;;;;7.41;54.66;102001.78;5042488;28;20485;-70
2020/12/25 05:41:58;;;;;;;1.30;0.05;;;;;;;7.46;54.69;102018.22;5046415;28;20037;-70
2020/12/25 05:44:25;;;;;;;0.57;0.20;;;;;;;7.37;55.85;102036.03;5044112;28;20033;-70
2020/12/25 05:46:51;;;;;;;1.20;0.20;;;;;;;7.31;56.36;102033.31;5048794;28;20036;-70
2020/12/25 05:49:16;;;;;;;1.25;0.15;;;;;;;7.36;56.91;102032.56;5063954;28;20489;-70
2020/12/25 05:51:51;;;;;;;2.78;0.10;;;;;;;7.49;56.69;102037.13;5039933;28;20043;-70
2020/12/25 05:54:22;;;;;;;0.45;0.15;;;;;;;7.90;55.29;102025.91;5044925;28;20051;-71
2020/12/25 05:56:56;;;;;;;3.88;0.10;;;;;;;8.04;55.11;102034.78;5025511;28;20501;-70
2020/12/25 05:59:29;;;;;;;0.90;0.03;;;;;;;8.15;54.73;102036.66;5039493;28;20040;-71
2020/12/25 06:02:05;;;;;;;0.50;0.00;;;;;;;8.27;54.30;102047.19;5046427;28;20033;-71
2020/12/25 06:04:33;;;;;;;0.90;0.20;;;;;;;8.09;54.78;102056.31;5057485;28;20214;-70
2020/12/25 06:07:00;;;;;;;6.47;0.80;;;;;;;8.40;54.24;102076.59;5056034;22;20010;-70
2020/12/25 06:09:32;;;;;;;6.35;0.20;;;;;;;8.37;54.17;102077.41;5029756;28;20046;-70
2020/12/25 06:12:00;;;;;;;3.75;0.35;;;;;;;8.10;54.49;102080.34;5016271;28;20470;-70
2020/12/25 06:14:25;;;;;;;4.07;0.20;;;;;;;8.14;54.07;102081.28;5018094;28;20111;-69
2020/12/25 06:16:59;;;;;;;7.47;0.57;;;;;;;8.02;54.36;102075.06;5014826;28;20505;-70
2020/12/25 06:19:46;;;;;;;0.57;0.10;;;;;;;7.88;54.81;102068.75;5030480;28;20374;-70
2020/12/25 06:22:50;;;;;;;6.80;0.25;;;;;;;7.94;54.37;102074.03;5047053;28;20390;-70
2020/12/25 06:25:18;;;;;;;2.05;0.10;;;;;;;7.99;54.23;102075.03;5045430;28;20056;-70
2020/12/25 06:27:55;;;;;;;2.33;0.10;;;;;;;7.80;54.07;102075.50;5028132;28;20033;-70
2020/12/25 06:30:24;;;;;;;1.38;0.00;;;;;;;7.68;54.14;102082.13;5033295;28;20049;-70
2020/12/25 06:32:53;;;;;;;0.82;0.20;;;;;;;7.40;55.46;102082.38;5030143;28;20043;-70
2020/12/25 06:35:38;;;;;;;0.43;0.10;;;;;;;7.47;55.17;102085.09;5017844;28;20036;-70
2020/12/25 06:38:08;;;;;;;0.40;0.10;;;;;;;7.54;54.75;102083.53;5027498;28;20056;-70
2020/12/25 06:40:33;;;;;;;6.63;0.10;;;;;;;7.43;55.42;102095.28;5033844;28;20043;-70
2020/12/25 06:42:59;;;;;;;2.05;0.10;;;;;;;7.53;55.01;102096.38;5046824;28;20660;-70
2020/12/25 06:45:32;;;;;;;0.65;0.10;;;;;;;7.57;54.93;102099.03;5050142;28;20045;-71
2020/12/25 06:48:15;;;;;;;2.75;0.10;;;;;;;7.55;55.03;102105.00;5046847;28;20025;-70
2020/12/25 06:50:54;;;;;;;1.83;0.10;;;;;;;7.60;55.13;102105.97;5049850;28;20041;-70
2020/12/25 06:53:42;;;;;;;2.75;0.10;;;;;;;7.60;54.75;102106.81;5049851;28;20029;-70
2020/12/25 06:56:09;;;;;;;3.20;0.10;;;;;;;7.58;54.63;102111.06;5031645;28;20057;-70
2020/12/25 06:58:40;;;;;;;0.28;0.05;;;;;;;7.34;55.12;102105.38;5050829;28;20041;-71
2020/12/25 07:01:05;;;;;;;0.60;0.10;;;;;;;7.10;55.91;102105.69;5052839;28;20067;-70
2020/12/25 07:03:36;;;;;;;3.25;0.13;;;;;;;7.34;55.07;102105.38;5029294;28;20291;-71
2020/12/25 07:06:04;;;;;;;2.38;0.10;;;;;;;7.41;55.15;102104.69;5050897;28;20040;-70
2020/12/25 07:08:32;;;;;;;0.60;0.10;;;;;;;7.52;55.03;102100.63;5036280;28;20094;-71
2020/12/25 07:11:02;;;;;;;2.55;0.40;;;;;;;7.52;55.09;102110.91;5032865;28;20531;-71
2020/12/25 07:13:29;;;;;;;3.80;0.13;;;;;;;7.62;55.04;102107.72;5047808;28;20137;-70
2020/12/25 07:15:55;;;;;;;0.35;0.00;;;;;;;7.60;55.04;102103.38;5029211;28;20033;-70
2020/12/25 07:18:20;;;;;;;1.52;0.10;;;;;;;7.67;54.92;102110.38;5028306;28;20095;-71
2020/12/25 07:20:46;;;;;;;1.45;0.10;;;;;;;7.69;54.97;102112.16;5027809;28;20152;-70
2020/12/25 07:23:12;;;;;;;0.65;0.10;;;;;;;7.68;54.92;102131.03;5049986;28;20045;-70
2020/12/25 07:25:41;;;;;;;3.40;0.17;;;;;;;7.72;55.09;102138.78;5038695;28;20070;-71
2020/12/25 07:28:07;;;;;;;3.63;0.10;;;;;;;7.80;55.10;102152.69;5054786;28;20039;-71
2020/12/25 07:30:33;;;;;;;4.03;0.10;;;;;;;7.79;55.21;102162.13;5034030;28;20040;-70
2020/12/25 07:32:58;;;;;;;0.73;0.10;;;;;;;7.69;55.39;102170.47;5050624;28;20063;-70
2020/12/25 07:35:24;;;;;;;0.50;0.20;;;;;;;7.86;55.08;102171.72;5033387;28;20033;-71
2020/12/25 07:37:56;;;;;;;1.10;0.13;;;;;;;7.92;55.18;102167.53;5032801;28;20040;-70
2020/12/25 07:40:21;;;;;;;;;;;;;;;8.07;55.10;102171.28;5032565;28;20806;-70
2020/12/25 07:42:47;;;;;;;0.40;0.13;;;;;;;7.92;55.22;102176.13;5047752;28;19913;-70
2020/12/25 07:45:13;;;;;;;1.52;0.10;;;;;;;7.99;55.31;102167.69;5048805;28;20028;-70
2020/12/25 07:47:39;;;;;;;2.90;0.20;;;;;;;8.14;55.50;102169.69;5030923;28;20044;-70
2020/12/25 07:50:05;;;;;;;1.98;0.25;;;;;;;7.97;55.85;102165.91;5033436;28;20066;-70
2020/12/25 07:52:31;;;;;;;9.00;0.20;;;;;;;8.13;55.37;102173.13;5017687;28;20040;-70
2020/12/25 07:54:57;;;;;;;2.05;0.10;;;;;;;8.38;54.93;102171.03;5050220;28;20418;-70
2020/12/25 07:57:23;;;;;;;0.40;0.10;;;;;;;8.30;54.98;102165.72;5034457;28;20029;-70
2020/12/25 07:59:49;;;;;;;1.58;0.10;;;;;;;8.10;55.20;102163.63;5051603;28;20119;-70
2020/12/25 08:02:17;;;;;;;3.25;0.00;;;;;;;8.18;55.07;102170.63;5013843;28;20421;-71
2020/12/25 08:04:46;;;;;;;3.67;0.10;;;;;;;8.26;54.64;102169.97;5028020;28;20521;-70
2020/12/25 08:07:12;;;;;;;1.70;0.10;;;;;;;8.26;54.36;102175.09;5028623;28;20072;-70
2020/12/25 08:09:39;;;;;;;0.73;0.30;;;;;;;8.19;54.40;102182.66;5015666;28;20041;-71
2020/12/25 08:12:12;;;;;;;0.30;0.00;;;;;;;8.15;54.54;102175.72;5050725;28;20033;-70
2020/12/25 08:14:39;;;;;;;0.30;0.10;;;;;;;8.13;54.46;102178.28;5031512;28;20068;-71
2020/12/25 08:17:08;;;;;;;5.72;0.10;;;;;;;8.16;54.63;102174.88;5012787;28;20033;-71
2020/12/25 08:19:34;;;;;;;1.83;0.10;;;;;;;8.20;54.19;102171.53;5032170;28;20068;-71
2020/12/25 08:22:08;;;;;;;4.32;0.77;;;;;;;8.24;54.37;102175.91;5026962;28;20098;-71
2020/12/25 08:24:34;;;;;;;3.58;0.40;;;;;;;8.28;54.11;102180.28;5032544;28;20045;-71
2020/12/25 08:27:02;;;;;;;0.90;0.32;;;;;;;8.15;54.02;102175.72;5016615;28;20051;-71
2020/12/25 08:29:32;;;;;;;1.25;0.28;;;;;;;8.10;54.09;102179.09;5030879;28;20457;-71
2020/12/25 08:32:08;;;;;;;1.58;0.20;;;;;;;8.11;54.10;102185.97;5015313;28;20337;-71
2020/12/25 08:34:34;;;;;;;1.23;0.30;;;;;;;8.08;53.94;102185.91;5043909;28;20624;-71
2020/12/25 08:37:03;;;;;;;3.10;0.52;;;;;;;8.02;53.89;102179.75;5046803;28;20044;-71
2020/12/25 08:39:29;;;;;;;3.55;0.30;;;;;;;7.96;54.33;102184.78;5030568;28;20094;-71
2020/12/25 08:41:55;;;;;;;3.08;0.68;;;;;;;7.98;54.35;102186.53;5032618;28;20029;-71
2020/12/25 08:44:21;;;;;;;2.10;0.45;;;;;;;8.01;54.45;102191.75;5049647;28;20029;-71
2020/12/25 08:46:47;;;;;;;1.63;0.77;;;;;;;8.08;54.79;102196.22;5029302;28;20116;-71
2020/12/25 08:49:24;;;;;;;3.92;0.63;;;;;;;8.61;54.19;102192.97;5015481;28;20025;-71
2020/12/25 08:51:50;;;;;;;3.05;0.95;;;;;;;9.45;53.48;102190.94;5044016;28;20063;-71
2020/12/25 08:54:23;;;;;;;2.97;0.73;;;;;;;10.49;52.00;102185.38;5049455;28;20533;-71
2020/12/25 08:56:49;;;;;;;3.42;0.75;;;;;;;11.17;50.85;102194.66;5042599;28;20037;-71
2020/12/25 08:59:16;;;;;;;2.33;0.90;;;;;;;10.95;50.38;102191.00;5048072;28;20043;-71
2020/12/25 09:01:42;;;;;;;5.55;1.30;;;;;;;10.99;50.38;102193.63;5030675;28;20040;-71
2020/12/25 09:04:20;;;;;;;1.48;0.65;;;;;;;10.59;48.72;102195.84;5050375;28;20036;-71
2020/12/25 09:06:49;;;;;;;1.77;0.90;;;;;;;10.27;50.02;102210.09;5032116;28;20059;-71
2020/12/25 09:09:15;;;;;;;1.75;0.85;;;;;;;9.97;50.86;102214.03;5034409;28;20033;-71
2020/12/25 09:11:41;;;;;;;2.20;1.13;;;;;;;9.75;50.25;102216.31;5030864;28;20128;-71
2020/12/25 09:14:06;;;;;;;2.70;0.70;;;;;;;9.40;51.48;102217.50;5043742;28;20112;-71
2020/12/25 09:16:32;;;;;;;2.67;0.82;;;;;;;9.35;51.53;102220.91;5031161;28;20040;-71
2020/12/25 09:18:59;;;;;;;3.92;2.05;;;;;;;9.27;51.84;102224.19;5029084;28;20116;-71
2020/12/25 09:21:27;;;;;;;2.45;0.90;;;;;;;9.38;52.24;102224.34;5014664;28;20060;-71
2020/12/25 09:23:54;;;;;;;2.50;1.13;;;;;;;9.63;52.32;102223.03;5046724;28;20037;-71
2020/12/25 09:26:20;;;;;;;1.92;0.40;;;;;;;9.93;51.95;102220.00;5050199;28;20791;-71
2020/12/25 09:28:45;;;;;;;2.38;0.47;;;;;;;10.05;51.41;102217.59;5032982;28;20028;-71
2020/12/25 09:31:13;;;;;;;2.42;0.65;;;;;;;10.15;51.08;102219.41;5048922;28;20576;-71
2020/12/25 09:33:39;;;;;;;2.03;0.30;;;;;;;10.31;50.70;102220.50;5029220;28;20478;-71
2020/12/25 09:36:06;;;;;;;3.63;0.73;;;;;;;10.65;51.24;102225.19;5047669;28;20123;-71
2020/12/25 09:38:32;;;;;;;2.60;0.30;;;;;;;11.21;50.69;102214.53;5046379;28;20064;-71
2020/12/25 09:40:58;;;;;;;1.08;0.30;;;;;;;11.62;48.27;102226.91;5026707;28;20041;-71
2020/12/25 09:43:24;;;;;;;1.98;0.13;;;;;;;11.91;47.54;102221.06;5024524;28;20029;-71
2020/12/25 09:45:49;;;;;;;1.60;0.32;;;;;;;12.20;46.28;102231.56;5048611;28;20029;-70
2020/12/25 09:48:15;;;;;;;0.47;0.25;;;;;;;12.35;45.84;102231.63;5030629;28;20033;-71
2020/12/25 09:50:44;;;;;;;1.00;0.30;;;;;;;12.61;45.37;102244.69;5047195;28;20047;-71
2020/12/25 09:53:10;;;;;;;1.77;0.32;;;;;;;12.79;45.07;102248.16;5046693;28;20044;-71
2020/12/25 09:55:37;;;;;;;3.03;0.80;;;;;;;12.77;44.83;102250.75;5049991;28;20075;-71
2020/12/25 09:58:04;;;;;;;1.02;0.30;;;;;;;13.12;44.56;102251.66;5050708;28;20016;-71
2020/12/25 10:00:30;;;;;;;0.82;0.20;;;;;;;13.19;44.76;102259.44;5026751;28;20071;-71
2020/12/25 10:02:57;;;;;;;0.90;0.20;;;;;;;13.12;44.29;102254.25;5049118;28;20060;-71
2020/12/25 10:05:22;;;;;;;0.65;0.30;;;;;;;13.17;42.65;102261.19;5028502;28;20040;-71
2020/12/25 10:07:52;;;;;;;2.95;0.82;;;;;;;13.05;44.15;102256.84;5045910;28;20033;-71
2020/12/25 10:10:19;;;;;;;3.97;1.40;;;;;;;13.10;44.35;102259.44;5014377;28;20068;-71
2020/12/25 10:12:46;;;;;;;4.00;1.42;;;;;;;12.85;43.68;102258.56;5047522;28;20041;-71
2020/12/25 10:15:11;;;;;;;2.92;0.15;;;;;;;12.32;45.11;102257.50;5032743;28;20060;-71
2020/12/25 10:17:37;;;;;;;1.27;0.32;;;;;;;11.82;46.38;102260.69;5027903;28;20075;-71
2020/12/25 10:20:03;;;;;;;0.20;0.10;;;;;;;11.92;46.58;102261.63;5029553;28;20469;-71
2020/12/25 10:22:28;;;;;;;0.88;0.20;;;;;;;12.07;47.26;102269.50;5027942;28;20045;-71
2020/12/25 10:24:54;;;;;;;2.58;0.20;;;;;;;12.14;47.36;102263.47;5030695;28;20040;-71
2020/12/25 10:27:19;;;;;;;2.65;0.20;;;;;;;12.46;45.86;102260.19;5045319;28;20039;-71
2020/12/25 10:29:45;;;;;;;3.65;0.10;;;;;;;12.82;46.05;102263.75;5014706;28;20055;-71
2020/12/25 10:32:11;;;;;;;0.60;0.10;;;;;;;13.01;45.35;102256.84;5028860;28;20036;-71
2020/12/25 10:34:36;;;;;;;1.38;0.20;;;;;;;13.21;43.65;102256.88;5047232;28;20041;-72
2020/12/25 10:37:02;;;;;;;0.85;0.20;;;;;;;13.30;43.52;102251.69;5030021;28;20079;-71
2020/12/25 10:39:28;;;;;;;0.75;0.20;;;;;;;13.56;43.30;102258.63;5030270;28;20044;-71
2020/12/25 10:41:53;;;;;;;1.40;0.20;;;;;;;13.22;43.18;102261.19;5013107;28;20037;-71
2020/12/25 10:44:19;;;;;;;2.97;0.30;;;;;;;13.12;43.41;102256.84;5035218;28;20063;-71
2020/12/25 10:46:44;;;;;;;1.38;0.20;;;;;;;12.91;44.14;102260.31;5032515;28;20029;-71
2020/12/25 10:49:10;;;;;;;1.38;0.15;;;;;;;12.96;44.27;102256.84;5014407;28;20124;-71
2020/12/25 10:51:35;;;;;;;2.33;0.40;;;;;;;12.51;44.03;102260.19;5030650;28;20056;-71
2020/12/25 10:54:01;;;;;;;1.30;0.15;;;;;;;12.13;45.54;102248.81;5026140;28;20072;-71
2020/12/25 10:56:31;;;;;;;1.00;0.10;;;;;;;11.79;45.63;102255.50;5044229;28;20060;-71
2020/12/25 10:58:57;;;;;;;1.17;0.30;;;;;;;11.53;47.50;102252.72;5033181;28;20040;-71
2020/12/25 11:01:27;;;;;;;2.28;0.10;;;;;;;11.65;47.15;102245.03;5045223;28;20025;-71
2020/12/25 11:03:53;;;;;;;1.00;0.15;;;;;;;11.75;46.85;102246.84;5043993;28;20037;-71
2020/12/25 11:06:19;;;;;;;3.25;0.20;;;;;;;11.62;47.32;102251.06;5028501;28;20032;-71
2020/12/25 11:08:48;;;;;;;1.17;0.30;;;;;;;11.91;46.62;102252.16;5046273;28;20033;-71
2020/12/25 11:11:43;;;;;;;1.10;0.20;;;;;;;11.81;46.98;102248.59;5025806;28;20037;-71
2020/12/25 11:14:09;;;;;;;1.30;0.30;;;;;;;11.59;47.42;102252.78;5022045;28;20045;-71
2020/12/25 11:16:36;;;;;;;2.65;0.25;;;;;;;12.21;46.67;102254.91;5027938;28;20033;-72
2020/12/25 11:19:09;;;;;;;2.30;0.32;;;;;;;12.34;44.71;102252.34;5031101;28;20063;-71
2020/12/25 11:21:35;;;;;;;6.50;1.30;;;;;;;12.31;45.28;102252.34;5029792;28;20032;-71
2020/12/25 11:24:03;;;;;;;2.70;0.20;;;;;;;12.14;45.56;102249.66;5022995;28;20029;-71
2020/12/25 11:26:34;;;;;;;9.38;0.30;;;;;;;12.03;45.35;102247.00;5047182;28;20037;-71
2020/12/25 11:29:02;;;;;;;2.53;0.38;;;;;;;12.25;45.69;102256.63;5030972;28;20040;-71
2020/12/25 11:31:29;;;;;;;2.75;0.45;;;;;;;12.09;45.68;102247.06;5048129;28;20055;-71
2020/12/25 11:33:55;;;;;;;2.75;0.30;;;;;;;12.56;45.13;102254.16;5023923;28;20079;-71